sensor_id;sensor_type;location;lat;lon;timestamp;temperature;humidity
52127;DHT22;38120;53.176;6.614;2022-10-16T00:01:35;13.00;99.90
52127;DHT22;38120;53.176;6.614;2022-10-16T00:04:01;13.00;99.90
52127;DHT22;38120;53.176;6.614;2022-10-16T00:06:28;13.00;99.90
52127;DHT22;38120;53.176;6.614;2022-10-16T00:08:54;13.00;99.90
52127;DHT22;38120;53.176;6.614;2022-10-16T00:11:32;13.00;99.90
52127;DHT22;38120;53.176;6.614;2022-10-16T00:14:08;13.00;99.90
52127;DHT22;38120;53.176;6.614;2022-10-16T00:16:34;12.90;99.90
52127;DHT22;38120;53.176;6.614;2022-10-16T00:19:00;12.90;99.90
52127;DHT22;38120;53.176;6.614;2022-10-16T00:21:27;12.90;99.90
52127;DHT22;38120;53.176;6.614;2022-10-16T00:24:02;13.00;99.90
52127;DHT22;38120;53.176;6.614;2022-10-16T00:26:31;13.00;99.90
52127;DHT22;38120;53.176;6.614;2022-10-16T00:28:57;13.00;99.90
52127;DHT22;38120;53.176;6.614;2022-10-16T00:31:22;13.00;99.90
52127;DHT22;38120;53.176;6.614;2022-10-16T00:33:49;13.00;99.90
52127;DHT22;38120;53.176;6.614;2022-10-16T00:36:16;12.90;99.90
52127;DHT22;38120;53.176;6.614;2022-10-16T00:38:42;12.90;99.90
52127;DHT22;38120;53.176;6.614;2022-10-16T00:41:12;12.90;99.90
52127;DHT22;38120;53.176;6.614;2022-10-16T00:46:17;12.80;99.90
52127;DHT22;38120;53.176;6.614;2022-10-16T00:48:52;12.80;99.90
52127;DHT22;38120;53.176;6.614;2022-10-16T00:51:23;12.90;99.90
52127;DHT22;38120;53.176;6.614;2022-10-16T00:53:50;12.80;99.90
52127;DHT22;38120;53.176;6.614;2022-10-16T00:56:17;12.90;99.90
52127;DHT22;38120;53.176;6.614;2022-10-16T00:58:43;12.80;99.90
52127;DHT22;38120;53.176;6.614;2022-10-16T01:01:09;13.00;99.90
52127;DHT22;38120;53.176;6.614;2022-10-16T01:03:36;12.90;99.90
52127;DHT22;38120;53.176;6.614;2022-10-16T01:06:09;12.90;99.90
52127;DHT22;38120;53.176;6.614;2022-10-16T01:09:12;12.90;99.90
52127;DHT22;38120;53.176;6.614;2022-10-16T01:12:26;12.90;99.90
52127;DHT22;38120;53.176;6.614;2022-10-16T01:15:05;12.90;99.90
52127;DHT22;38120;53.176;6.614;2022-10-16T01:17:48;12.90;99.90
52127;DHT22;38120;53.176;6.614;2022-10-16T01:20:31;12.90;99.90
52127;DHT22;38120;53.176;6.614;2022-10-16T01:28:30;12.90;99.90
52127;DHT22;38120;53.176;6.614;2022-10-16T01:30:59;12.90;99.90
52127;DHT22;38120;53.176;6.614;2022-10-16T01:33:36;12.90;99.90
52127;DHT22;38120;53.176;6.614;2022-10-16T01:36:10;12.90;99.90
52127;DHT22;38120;53.176;6.614;2022-10-16T01:38:39;13.00;99.90
52127;DHT22;38120;53.176;6.614;2022-10-16T01:41:27;13.00;99.90
52127;DHT22;38120;53.176;6.614;2022-10-16T01:44:01;13.00;99.90
52127;DHT22;38120;53.176;6.614;2022-10-16T01:46:28;13.00;99.90
52127;DHT22;38120;53.176;6.614;2022-10-16T01:48:56;13.00;99.90
52127;DHT22;38120;53.176;6.614;2022-10-16T01:51:23;13.00;99.90
52127;DHT22;38120;53.176;6.614;2022-10-16T01:53:53;13.00;99.90
52127;DHT22;38120;53.176;6.614;2022-10-16T01:56:20;13.00;99.90
52127;DHT22;38120;53.176;6.614;2022-10-16T01:58:54;13.10;99.90
52127;DHT22;38120;53.176;6.614;2022-10-16T02:01:23;13.10;99.90
52127;DHT22;38120;53.176;6.614;2022-10-16T02:03:53;13.10;99.90
52127;DHT22;38120;53.176;6.614;2022-10-16T02:06:19;13.10;99.90
52127;DHT22;38120;53.176;6.614;2022-10-16T02:08:46;13.10;99.90
52127;DHT22;38120;53.176;6.614;2022-10-16T02:11:12;13.10;99.90
52127;DHT22;38120;53.176;6.614;2022-10-16T02:13:44;13.10;99.90
52127;DHT22;38120;53.176;6.614;2022-10-16T02:16:12;13.10;99.90
52127;DHT22;38120;53.176;6.614;2022-10-16T02:18:39;13.10;99.90
52127;DHT22;38120;53.176;6.614;2022-10-16T02:21:22;13.10;99.90
52127;DHT22;38120;53.176;6.614;2022-10-16T02:26:35;13.10;99.90
52127;DHT22;38120;53.176;6.614;2022-10-16T02:29:06;13.10;99.90
52127;DHT22;38120;53.176;6.614;2022-10-16T02:31:35;13.10;99.90
52127;DHT22;38120;53.176;6.614;2022-10-16T02:34:03;13.30;99.90
52127;DHT22;38120;53.176;6.614;2022-10-16T02:36:32;13.10;99.90
52127;DHT22;38120;53.176;6.614;2022-10-16T02:38:58;13.10;99.90
52127;DHT22;38120;53.176;6.614;2022-10-16T02:41:26;13.10;99.90
52127;DHT22;38120;53.176;6.614;2022-10-16T02:43:52;13.10;99.90
52127;DHT22;38120;53.176;6.614;2022-10-16T02:46:19;13.10;99.90
52127;DHT22;38120;53.176;6.614;2022-10-16T02:48:45;13.10;99.90
52127;DHT22;38120;53.176;6.614;2022-10-16T02:51:10;13.20;99.90
52127;DHT22;38120;53.176;6.614;2022-10-16T02:53:36;13.20;99.90
52127;DHT22;38120;53.176;6.614;2022-10-16T02:56:02;13.20;99.90
52127;DHT22;38120;53.176;6.614;2022-10-16T02:58:27;13.30;99.90
52127;DHT22;38120;53.176;6.614;2022-10-16T03:00:54;13.30;99.90
52127;DHT22;38120;53.176;6.614;2022-10-16T03:03:20;13.30;99.90
52127;DHT22;38120;53.176;6.614;2022-10-16T03:05:45;13.30;99.90
52127;DHT22;38120;53.176;6.614;2022-10-16T03:08:12;13.30;99.90
52127;DHT22;38120;53.176;6.614;2022-10-16T03:10:38;13.40;99.90
52127;DHT22;38120;53.176;6.614;2022-10-16T03:13:04;13.40;99.90
52127;DHT22;38120;53.176;6.614;2022-10-16T03:15:29;13.40;99.90
52127;DHT22;38120;53.176;6.614;2022-10-16T03:17:57;13.40;99.90
52127;DHT22;38120;53.176;6.614;2022-10-16T03:20:24;13.30;99.90
52127;DHT22;38120;53.176;6.614;2022-10-16T03:22:49;13.40;99.90
52127;DHT22;38120;53.176;6.614;2022-10-16T03:25:15;13.40;99.90
52127;DHT22;38120;53.176;6.614;2022-10-16T03:27:41;13.30;99.90
52127;DHT22;38120;53.176;6.614;2022-10-16T03:30:07;13.40;99.90
52127;DHT22;38120;53.176;6.614;2022-10-16T03:32:33;13.30;99.90
52127;DHT22;38120;53.176;6.614;2022-10-16T03:34:59;13.30;99.90
52127;DHT22;38120;53.176;6.614;2022-10-16T03:37:24;13.30;99.90
52127;DHT22;38120;53.176;6.614;2022-10-16T03:39:50;13.20;99.90
52127;DHT22;38120;53.176;6.614;2022-10-16T03:42:16;13.30;99.90
52127;DHT22;38120;53.176;6.614;2022-10-16T03:44:42;13.30;99.90
52127;DHT22;38120;53.176;6.614;2022-10-16T03:47:07;13.20;99.90
52127;DHT22;38120;53.176;6.614;2022-10-16T03:49:33;13.20;99.90
52127;DHT22;38120;53.176;6.614;2022-10-16T03:51:58;13.30;99.90
52127;DHT22;38120;53.176;6.614;2022-10-16T03:54:24;13.20;99.90
52127;DHT22;38120;53.176;6.614;2022-10-16T03:56:50;13.20;99.90
52127;DHT22;38120;53.176;6.614;2022-10-16T03:59:16;13.20;99.90
52127;DHT22;38120;53.176;6.614;2022-10-16T04:01:41;13.20;99.90
52127;DHT22;38120;53.176;6.614;2022-10-16T04:04:07;13.20;99.90
52127;DHT22;38120;53.176;6.614;2022-10-16T04:06:33;13.20;99.90
52127;DHT22;38120;53.176;6.614;2022-10-16T04:08:58;13.20;99.90
52127;DHT22;38120;53.176;6.614;2022-10-16T04:11:24;13.10;99.90
52127;DHT22;38120;53.176;6.614;2022-10-16T04:13:50;13.10;99.90
52127;DHT22;38120;53.176;6.614;2022-10-16T04:16:15;13.10;99.90
52127;DHT22;38120;53.176;6.614;2022-10-16T04:18:41;13.00;99.90
52127;DHT22;38120;53.176;6.614;2022-10-16T04:21:07;13.10;99.90
52127;DHT22;38120;53.176;6.614;2022-10-16T04:23:33;13.10;99.90
52127;DHT22;38120;53.176;6.614;2022-10-16T04:25:59;13.00;99.90
52127;DHT22;38120;53.176;6.614;2022-10-16T04:28:25;13.00;99.90
52127;DHT22;38120;53.176;6.614;2022-10-16T04:30:51;13.00;99.90
52127;DHT22;38120;53.176;6.614;2022-10-16T04:33:17;13.10;99.90
52127;DHT22;38120;53.176;6.614;2022-10-16T04:35:42;13.10;99.90
52127;DHT22;38120;53.176;6.614;2022-10-16T04:38:08;13.10;99.90
52127;DHT22;38120;53.176;6.614;2022-10-16T04:40:34;13.10;99.90
52127;DHT22;38120;53.176;6.614;2022-10-16T04:43:02;13.10;99.90
52127;DHT22;38120;53.176;6.614;2022-10-16T04:45:28;13.10;99.90
52127;DHT22;38120;53.176;6.614;2022-10-16T04:47:57;13.00;99.90
52127;DHT22;38120;53.176;6.614;2022-10-16T04:50:23;13.10;99.90
52127;DHT22;38120;53.176;6.614;2022-10-16T04:52:49;13.20;99.90
52127;DHT22;38120;53.176;6.614;2022-10-16T04:55:15;13.10;99.90
52127;DHT22;38120;53.176;6.614;2022-10-16T04:57:41;13.10;99.90
52127;DHT22;38120;53.176;6.614;2022-10-16T05:00:07;13.10;99.90
52127;DHT22;38120;53.176;6.614;2022-10-16T05:02:33;13.20;99.90
52127;DHT22;38120;53.176;6.614;2022-10-16T05:04:59;13.20;99.90
52127;DHT22;38120;53.176;6.614;2022-10-16T05:07:25;13.20;99.90
52127;DHT22;38120;53.176;6.614;2022-10-16T05:09:50;13.10;99.90
52127;DHT22;38120;53.176;6.614;2022-10-16T05:12:16;13.10;99.90
52127;DHT22;38120;53.176;6.614;2022-10-16T05:14:42;13.10;99.90
52127;DHT22;38120;53.176;6.614;2022-10-16T05:17:07;13.10;99.90
52127;DHT22;38120;53.176;6.614;2022-10-16T05:19:33;13.00;99.90
52127;DHT22;38120;53.176;6.614;2022-10-16T05:21:59;13.00;99.90
52127;DHT22;38120;53.176;6.614;2022-10-16T05:24:25;13.00;99.90
52127;DHT22;38120;53.176;6.614;2022-10-16T05:26:51;13.00;99.90
52127;DHT22;38120;53.176;6.614;2022-10-16T05:29:17;13.60;99.90
52127;DHT22;38120;53.176;6.614;2022-10-16T05:31:43;13.00;99.90
52127;DHT22;38120;53.176;6.614;2022-10-16T05:34:08;13.00;99.90
52127;DHT22;38120;53.176;6.614;2022-10-16T05:36:34;13.00;99.90
52127;DHT22;38120;53.176;6.614;2022-10-16T05:39:00;13.00;99.90
52127;DHT22;38120;53.176;6.614;2022-10-16T05:41:26;12.90;99.90
52127;DHT22;38120;53.176;6.614;2022-10-16T05:43:52;12.90;99.90
52127;DHT22;38120;53.176;6.614;2022-10-16T05:46:18;12.90;99.90
52127;DHT22;38120;53.176;6.614;2022-10-16T05:48:44;13.00;99.90
52127;DHT22;38120;53.176;6.614;2022-10-16T05:51:13;12.90;99.90
52127;DHT22;38120;53.176;6.614;2022-10-16T05:53:40;13.00;99.90
52127;DHT22;38120;53.176;6.614;2022-10-16T05:56:08;13.00;99.90
52127;DHT22;38120;53.176;6.614;2022-10-16T05:58:37;12.90;99.90
52127;DHT22;38120;53.176;6.614;2022-10-16T06:01:04;13.00;99.90
52127;DHT22;38120;53.176;6.614;2022-10-16T06:03:29;13.00;99.90
52127;DHT22;38120;53.176;6.614;2022-10-16T06:05:55;13.10;99.90
52127;DHT22;38120;53.176;6.614;2022-10-16T06:08:22;13.00;99.90
52127;DHT22;38120;53.176;6.614;2022-10-16T06:10:49;13.00;99.90
52127;DHT22;38120;53.176;6.614;2022-10-16T06:13:25;13.00;99.90
52127;DHT22;38120;53.176;6.614;2022-10-16T06:15:50;13.00;99.90
52127;DHT22;38120;53.176;6.614;2022-10-16T06:18:16;13.10;99.90
52127;DHT22;38120;53.176;6.614;2022-10-16T06:20:42;13.00;99.90
52127;DHT22;38120;53.176;6.614;2022-10-16T06:23:07;12.40;99.90
52127;DHT22;38120;53.176;6.614;2022-10-16T06:25:33;13.00;99.90
52127;DHT22;38120;53.176;6.614;2022-10-16T06:27:59;13.10;99.90
52127;DHT22;38120;53.176;6.614;2022-10-16T06:30:25;13.10;99.90
52127;DHT22;38120;53.176;6.614;2022-10-16T06:32:50;13.10;99.90
52127;DHT22;38120;53.176;6.614;2022-10-16T06:35:16;13.20;99.90
52127;DHT22;38120;53.176;6.614;2022-10-16T06:37:42;13.20;99.90
52127;DHT22;38120;53.176;6.614;2022-10-16T06:40:07;13.20;99.90
52127;DHT22;38120;53.176;6.614;2022-10-16T06:42:33;13.30;99.90
52127;DHT22;38120;53.176;6.614;2022-10-16T06:44:59;13.30;99.90
52127;DHT22;38120;53.176;6.614;2022-10-16T06:47:24;13.40;99.90
52127;DHT22;38120;53.176;6.614;2022-10-16T06:49:50;13.40;99.90
52127;DHT22;38120;53.176;6.614;2022-10-16T06:52:16;13.40;99.90
52127;DHT22;38120;53.176;6.614;2022-10-16T06:54:42;13.50;99.90
52127;DHT22;38120;53.176;6.614;2022-10-16T06:57:07;13.60;99.90
52127;DHT22;38120;53.176;6.614;2022-10-16T06:59:33;13.60;99.90
52127;DHT22;38120;53.176;6.614;2022-10-16T07:01:59;13.70;99.90
52127;DHT22;38120;53.176;6.614;2022-10-16T07:04:24;13.70;99.90
52127;DHT22;38120;53.176;6.614;2022-10-16T07:06:50;13.60;99.90
52127;DHT22;38120;53.176;6.614;2022-10-16T07:09:17;13.60;99.90
52127;DHT22;38120;53.176;6.614;2022-10-16T07:11:42;13.70;99.90
52127;DHT22;38120;53.176;6.614;2022-10-16T07:14:19;13.60;99.90
52127;DHT22;38120;53.176;6.614;2022-10-16T07:16:45;13.60;99.90
52127;DHT22;38120;53.176;6.614;2022-10-16T07:19:11;13.60;99.90
52127;DHT22;38120;53.176;6.614;2022-10-16T07:21:40;13.70;99.90
52127;DHT22;38120;53.176;6.614;2022-10-16T07:24:11;13.70;99.90
52127;DHT22;38120;53.176;6.614;2022-10-16T07:26:38;13.70;99.90
52127;DHT22;38120;53.176;6.614;2022-10-16T07:29:11;13.70;99.90
52127;DHT22;38120;53.176;6.614;2022-10-16T07:31:39;13.90;99.90
52127;DHT22;38120;53.176;6.614;2022-10-16T07:34:05;13.70;99.90
52127;DHT22;38120;53.176;6.614;2022-10-16T07:36:31;13.70;99.90
52127;DHT22;38120;53.176;6.614;2022-10-16T07:38:56;13.70;99.90
52127;DHT22;38120;53.176;6.614;2022-10-16T07:41:22;13.70;99.90
52127;DHT22;38120;53.176;6.614;2022-10-16T07:43:49;13.70;99.90
52127;DHT22;38120;53.176;6.614;2022-10-16T07:46:17;13.70;99.90
52127;DHT22;38120;53.176;6.614;2022-10-16T07:48:43;13.60;99.90
52127;DHT22;38120;53.176;6.614;2022-10-16T07:51:15;13.60;99.90
52127;DHT22;38120;53.176;6.614;2022-10-16T07:53:41;13.70;99.90
52127;DHT22;38120;53.176;6.614;2022-10-16T07:56:08;13.80;99.90
52127;DHT22;38120;53.176;6.614;2022-10-16T07:58:34;13.90;99.90
52127;DHT22;38120;53.176;6.614;2022-10-16T08:01:11;14.00;99.90
52127;DHT22;38120;53.176;6.614;2022-10-16T08:03:37;14.10;99.90
52127;DHT22;38120;53.176;6.614;2022-10-16T08:06:04;15.20;99.90
52127;DHT22;38120;53.176;6.614;2022-10-16T08:08:30;14.30;99.90
52127;DHT22;38120;53.176;6.614;2022-10-16T08:10:56;14.40;99.90
52127;DHT22;38120;53.176;6.614;2022-10-16T08:13:22;14.40;99.90
52127;DHT22;38120;53.176;6.614;2022-10-16T08:15:48;14.40;99.90
52127;DHT22;38120;53.176;6.614;2022-10-16T08:18:14;14.30;99.90
52127;DHT22;38120;53.176;6.614;2022-10-16T08:20:41;14.30;99.90
52127;DHT22;38120;53.176;6.614;2022-10-16T08:23:08;14.30;99.90
52127;DHT22;38120;53.176;6.614;2022-10-16T08:25:36;14.40;99.90
52127;DHT22;38120;53.176;6.614;2022-10-16T08:28:04;14.40;99.90
52127;DHT22;38120;53.176;6.614;2022-10-16T08:30:31;14.30;99.90
52127;DHT22;38120;53.176;6.614;2022-10-16T08:32:57;14.40;99.90
52127;DHT22;38120;53.176;6.614;2022-10-16T08:35:23;14.40;99.90
52127;DHT22;38120;53.176;6.614;2022-10-16T08:37:49;14.50;99.90
52127;DHT22;38120;53.176;6.614;2022-10-16T08:40:29;14.60;99.90
52127;DHT22;38120;53.176;6.614;2022-10-16T08:48:51;14.80;99.90
52127;DHT22;38120;53.176;6.614;2022-10-16T08:51:22;14.80;99.90
52127;DHT22;38120;53.176;6.614;2022-10-16T08:53:57;14.90;99.90
52127;DHT22;38120;53.176;6.614;2022-10-16T08:56:24;15.10;99.90
52127;DHT22;38120;53.176;6.614;2022-10-16T08:58:51;15.00;99.90
52127;DHT22;38120;53.176;6.614;2022-10-16T09:01:20;15.10;99.90
52127;DHT22;38120;53.176;6.614;2022-10-16T09:04:01;15.30;99.90
52127;DHT22;38120;53.176;6.614;2022-10-16T09:12:26;15.40;99.90
52127;DHT22;38120;53.176;6.614;2022-10-16T09:23:23;15.70;99.90
52127;DHT22;38120;53.176;6.614;2022-10-16T09:25:51;15.60;99.90
52127;DHT22;38120;53.176;6.614;2022-10-16T09:28:18;15.70;99.90
52127;DHT22;38120;53.176;6.614;2022-10-16T09:30:45;15.70;99.90
52127;DHT22;38120;53.176;6.614;2022-10-16T09:33:12;15.70;99.90
52127;DHT22;38120;53.176;6.614;2022-10-16T09:35:42;15.80;99.90
52127;DHT22;38120;53.176;6.614;2022-10-16T09:38:09;15.90;99.90
52127;DHT22;38120;53.176;6.614;2022-10-16T09:40:46;16.10;99.90
52127;DHT22;38120;53.176;6.614;2022-10-16T09:46:08;16.10;99.90
52127;DHT22;38120;53.176;6.614;2022-10-16T09:48:47;15.90;99.90
52127;DHT22;38120;53.176;6.614;2022-10-16T09:51:40;15.80;99.90
52127;DHT22;38120;53.176;6.614;2022-10-16T09:56:35;16.00;99.90
52127;DHT22;38120;53.176;6.614;2022-10-16T09:59:13;16.00;99.90
52127;DHT22;38120;53.176;6.614;2022-10-16T10:01:41;16.20;99.90
52127;DHT22;38120;53.176;6.614;2022-10-16T10:04:08;16.10;99.90
52127;DHT22;38120;53.176;6.614;2022-10-16T10:06:45;16.20;99.90
52127;DHT22;38120;53.176;6.614;2022-10-16T10:17:01;16.10;99.90
52127;DHT22;38120;53.176;6.614;2022-10-16T10:19:27;16.50;99.90
52127;DHT22;38120;53.176;6.614;2022-10-16T10:21:53;16.60;99.90
52127;DHT22;38120;53.176;6.614;2022-10-16T10:24:19;16.70;99.90
52127;DHT22;38120;53.176;6.614;2022-10-16T10:27:10;16.70;99.90
52127;DHT22;38120;53.176;6.614;2022-10-16T10:29:45;16.60;99.90
52127;DHT22;38120;53.176;6.614;2022-10-16T10:35:07;16.70;99.90
52127;DHT22;38120;53.176;6.614;2022-10-16T10:42:56;17.00;99.90
52127;DHT22;38120;53.176;6.614;2022-10-16T10:45:27;17.10;99.90
52127;DHT22;38120;53.176;6.614;2022-10-16T10:48:16;17.10;99.90
52127;DHT22;38120;53.176;6.614;2022-10-16T10:51:08;17.00;99.90
52127;DHT22;38120;53.176;6.614;2022-10-16T10:53:48;17.00;99.90
52127;DHT22;38120;53.176;6.614;2022-10-16T10:59:19;17.00;99.90
52127;DHT22;38120;53.176;6.614;2022-10-16T11:02:11;16.90;99.90
52127;DHT22;38120;53.176;6.614;2022-10-16T11:07:17;16.80;99.90
52127;DHT22;38120;53.176;6.614;2022-10-16T11:09:48;16.80;99.90
52127;DHT22;38120;53.176;6.614;2022-10-16T11:12:27;16.70;99.90
52127;DHT22;38120;53.176;6.614;2022-10-16T11:15:11;16.80;99.90
52127;DHT22;38120;53.176;6.614;2022-10-16T11:18:12;16.90;99.90
52127;DHT22;38120;53.176;6.614;2022-10-16T11:20:47;16.90;99.90
52127;DHT22;38120;53.176;6.614;2022-10-16T11:24:16;16.90;99.90
52127;DHT22;38120;53.176;6.614;2022-10-16T11:26:28;16.90;99.90
52127;DHT22;38120;53.176;6.614;2022-10-16T11:28:56;17.00;99.90
52127;DHT22;38120;53.176;6.614;2022-10-16T11:31:39;17.00;99.90
52127;DHT22;38120;53.176;6.614;2022-10-16T11:34:13;16.90;99.90
52127;DHT22;38120;53.176;6.614;2022-10-16T11:37:10;16.90;99.90
52127;DHT22;38120;53.176;6.614;2022-10-16T11:39:38;16.90;99.90
52127;DHT22;38120;53.176;6.614;2022-10-16T11:42:10;16.90;99.90
52127;DHT22;38120;53.176;6.614;2022-10-16T11:47:48;16.90;99.90
52127;DHT22;38120;53.176;6.614;2022-10-16T11:55:47;16.80;99.90
52127;DHT22;38120;53.176;6.614;2022-10-16T11:58:20;16.90;99.90
52127;DHT22;38120;53.176;6.614;2022-10-16T12:00:53;17.00;99.90
52127;DHT22;38120;53.176;6.614;2022-10-16T12:03:43;17.00;99.90
52127;DHT22;38120;53.176;6.614;2022-10-16T12:08:49;17.00;99.90
52127;DHT22;38120;53.176;6.614;2022-10-16T12:11:31;17.10;99.90
52127;DHT22;38120;53.176;6.614;2022-10-16T12:19:17;17.20;99.90
52127;DHT22;38120;53.176;6.614;2022-10-16T12:21:44;17.30;99.90
52127;DHT22;38120;53.176;6.614;2022-10-16T12:26:48;17.70;99.90
52127;DHT22;38120;53.176;6.614;2022-10-16T12:29:37;17.60;99.90
52127;DHT22;38120;53.176;6.614;2022-10-16T12:32:06;17.70;99.90
52127;DHT22;38120;53.176;6.614;2022-10-16T12:34:47;17.60;99.90
52127;DHT22;38120;53.176;6.614;2022-10-16T12:37:14;17.60;99.90
52127;DHT22;38120;53.176;6.614;2022-10-16T12:39:44;17.70;99.90
52127;DHT22;38120;53.176;6.614;2022-10-16T12:44:51;17.70;99.90
52127;DHT22;38120;53.176;6.614;2022-10-16T12:47:36;17.50;99.90
52127;DHT22;38120;53.176;6.614;2022-10-16T12:50:02;17.30;99.90
52127;DHT22;38120;53.176;6.614;2022-10-16T12:52:35;17.10;99.90
52127;DHT22;38120;53.176;6.614;2022-10-16T12:55:01;17.00;99.90
52127;DHT22;38120;53.176;6.614;2022-10-16T13:05:35;16.70;99.90
52127;DHT22;38120;53.176;6.614;2022-10-16T13:08:25;16.60;99.90
52127;DHT22;38120;53.176;6.614;2022-10-16T13:11:22;16.50;99.90
52127;DHT22;38120;53.176;6.614;2022-10-16T13:17:03;16.40;99.90
52127;DHT22;38120;53.176;6.614;2022-10-16T13:19:59;16.40;99.90
52127;DHT22;38120;53.176;6.614;2022-10-16T13:28:13;16.60;99.90
52127;DHT22;38120;53.176;6.614;2022-10-16T13:30:42;16.60;99.90
52127;DHT22;38120;53.176;6.614;2022-10-16T13:33:17;16.60;99.90
52127;DHT22;38120;53.176;6.614;2022-10-16T13:35:53;16.50;99.90
52127;DHT22;38120;53.176;6.614;2022-10-16T13:38:21;16.50;99.90
52127;DHT22;38120;53.176;6.614;2022-10-16T13:40:53;16.50;99.90
52127;DHT22;38120;53.176;6.614;2022-10-16T13:43:23;16.50;99.90
52127;DHT22;38120;53.176;6.614;2022-10-16T13:48:27;16.50;99.90
52127;DHT22;38120;53.176;6.614;2022-10-16T13:51:17;16.50;99.90
52127;DHT22;38120;53.176;6.614;2022-10-16T13:53:44;16.70;99.90
52127;DHT22;38120;53.176;6.614;2022-10-16T13:56:13;16.80;99.90
52127;DHT22;38120;53.176;6.614;2022-10-16T13:58:39;16.80;99.90
52127;DHT22;38120;53.176;6.614;2022-10-16T14:04:07;17.00;99.90
52127;DHT22;38120;53.176;6.614;2022-10-16T14:06:33;15.90;99.90
52127;DHT22;38120;53.176;6.614;2022-10-16T14:11:47;16.60;99.90
52127;DHT22;38120;53.176;6.614;2022-10-16T14:14:14;16.40;99.90
52127;DHT22;38120;53.176;6.614;2022-10-16T14:16:42;16.30;99.90
52127;DHT22;38120;53.176;6.614;2022-10-16T14:19:24;16.30;99.90
52127;DHT22;38120;53.176;6.614;2022-10-16T14:21:51;16.40;99.90
52127;DHT22;38120;53.176;6.614;2022-10-16T14:26:55;16.40;99.90
52127;DHT22;38120;53.176;6.614;2022-10-16T14:29:23;16.50;99.90
52127;DHT22;38120;53.176;6.614;2022-10-16T14:32:03;16.30;99.90
52127;DHT22;38120;53.176;6.614;2022-10-16T14:34:34;16.30;99.90
52127;DHT22;38120;53.176;6.614;2022-10-16T14:37:08;16.30;99.90
52127;DHT22;38120;53.176;6.614;2022-10-16T14:39:35;16.20;99.90
52127;DHT22;38120;53.176;6.614;2022-10-16T14:42:01;16.20;99.90
52127;DHT22;38120;53.176;6.614;2022-10-16T14:44:33;16.20;99.90
52127;DHT22;38120;53.176;6.614;2022-10-16T14:47:06;16.10;99.90
52127;DHT22;38120;53.176;6.614;2022-10-16T14:49:33;16.10;99.90
52127;DHT22;38120;53.176;6.614;2022-10-16T14:51:58;16.00;99.90
52127;DHT22;38120;53.176;6.614;2022-10-16T14:54:24;15.90;99.90
52127;DHT22;38120;53.176;6.614;2022-10-16T14:56:59;15.90;99.90
52127;DHT22;38120;53.176;6.614;2022-10-16T14:59:34;15.80;99.90
52127;DHT22;38120;53.176;6.614;2022-10-16T15:02:09;15.80;99.90
52127;DHT22;38120;53.176;6.614;2022-10-16T15:04:40;15.80;99.90
52127;DHT22;38120;53.176;6.614;2022-10-16T15:07:07;15.80;99.90
52127;DHT22;38120;53.176;6.614;2022-10-16T15:09:33;15.70;99.90
52127;DHT22;38120;53.176;6.614;2022-10-16T15:11:58;15.70;99.90
52127;DHT22;38120;53.176;6.614;2022-10-16T15:14:24;15.70;99.90
52127;DHT22;38120;53.176;6.614;2022-10-16T15:16:50;15.70;99.90
52127;DHT22;38120;53.176;6.614;2022-10-16T15:19:15;15.70;99.90
52127;DHT22;38120;53.176;6.614;2022-10-16T15:21:41;15.60;99.90
52127;DHT22;38120;53.176;6.614;2022-10-16T15:24:12;15.60;99.90
52127;DHT22;38120;53.176;6.614;2022-10-16T15:26:38;15.60;99.90
52127;DHT22;38120;53.176;6.614;2022-10-16T15:29:04;15.50;99.90
52127;DHT22;38120;53.176;6.614;2022-10-16T15:31:30;15.50;99.90
52127;DHT22;38120;53.176;6.614;2022-10-16T15:33:56;15.50;99.90
52127;DHT22;38120;53.176;6.614;2022-10-16T15:36:37;15.70;99.90
52127;DHT22;38120;53.176;6.614;2022-10-16T15:39:05;15.40;99.90
52127;DHT22;38120;53.176;6.614;2022-10-16T15:41:31;15.30;99.90
52127;DHT22;38120;53.176;6.614;2022-10-16T15:43:56;15.30;99.90
52127;DHT22;38120;53.176;6.614;2022-10-16T15:46:23;15.20;99.90
52127;DHT22;38120;53.176;6.614;2022-10-16T15:48:50;15.20;99.90
52127;DHT22;38120;53.176;6.614;2022-10-16T15:51:16;15.20;99.90
52127;DHT22;38120;53.176;6.614;2022-10-16T15:53:43;15.10;99.90
52127;DHT22;38120;53.176;6.614;2022-10-16T15:56:12;15.00;99.90
52127;DHT22;38120;53.176;6.614;2022-10-16T15:58:38;15.00;99.90
52127;DHT22;38120;53.176;6.614;2022-10-16T16:01:04;14.90;99.90
52127;DHT22;38120;53.176;6.614;2022-10-16T16:03:30;14.90;99.90
52127;DHT22;38120;53.176;6.614;2022-10-16T16:05:56;14.70;99.90
52127;DHT22;38120;53.176;6.614;2022-10-16T16:08:22;14.70;99.90
52127;DHT22;38120;53.176;6.614;2022-10-16T16:11:05;14.60;99.90
52127;DHT22;38120;53.176;6.614;2022-10-16T16:13:32;14.50;99.90
52127;DHT22;38120;53.176;6.614;2022-10-16T16:15:57;14.40;99.90
52127;DHT22;38120;53.176;6.614;2022-10-16T16:18:23;14.40;99.90
52127;DHT22;38120;53.176;6.614;2022-10-16T16:20:50;14.40;99.90
52127;DHT22;38120;53.176;6.614;2022-10-16T16:23:16;14.30;99.90
52127;DHT22;38120;53.176;6.614;2022-10-16T16:25:42;14.20;99.90
52127;DHT22;38120;53.176;6.614;2022-10-16T16:28:09;14.10;99.90
52127;DHT22;38120;53.176;6.614;2022-10-16T16:30:36;14.00;99.90
52127;DHT22;38120;53.176;6.614;2022-10-16T16:33:02;14.00;99.90
52127;DHT22;38120;53.176;6.614;2022-10-16T16:35:28;13.90;99.90
52127;DHT22;38120;53.176;6.614;2022-10-16T16:37:54;13.80;99.90
52127;DHT22;38120;53.176;6.614;2022-10-16T16:40:20;13.80;99.90
52127;DHT22;38120;53.176;6.614;2022-10-16T16:42:48;13.70;99.90
52127;DHT22;38120;53.176;6.614;2022-10-16T16:45:13;13.60;99.90
52127;DHT22;38120;53.176;6.614;2022-10-16T16:47:39;13.60;99.90
52127;DHT22;38120;53.176;6.614;2022-10-16T16:50:06;13.50;99.90
52127;DHT22;38120;53.176;6.614;2022-10-16T16:52:33;13.40;99.90
52127;DHT22;38120;53.176;6.614;2022-10-16T16:54:59;13.40;99.90
52127;DHT22;38120;53.176;6.614;2022-10-16T16:57:25;13.40;99.90
52127;DHT22;38120;53.176;6.614;2022-10-16T16:59:50;13.30;99.90
52127;DHT22;38120;53.176;6.614;2022-10-16T17:02:17;13.30;99.90
52127;DHT22;38120;53.176;6.614;2022-10-16T17:04:42;13.20;99.90
52127;DHT22;38120;53.176;6.614;2022-10-16T17:07:08;13.20;99.90
52127;DHT22;38120;53.176;6.614;2022-10-16T17:09:34;13.10;99.90
52127;DHT22;38120;53.176;6.614;2022-10-16T17:12:00;13.00;99.90
52127;DHT22;38120;53.176;6.614;2022-10-16T17:14:26;13.00;99.90
52127;DHT22;38120;53.176;6.614;2022-10-16T17:16:52;13.20;99.90
52127;DHT22;38120;53.176;6.614;2022-10-16T17:19:19;12.90;99.90
52127;DHT22;38120;53.176;6.614;2022-10-16T17:21:48;12.90;99.90
52127;DHT22;38120;53.176;6.614;2022-10-16T17:24:13;12.90;99.90
52127;DHT22;38120;53.176;6.614;2022-10-16T17:26:40;12.80;99.90
52127;DHT22;38120;53.176;6.614;2022-10-16T17:29:11;12.70;99.90
52127;DHT22;38120;53.176;6.614;2022-10-16T17:31:37;12.70;99.90